Startpagina
METAR-TAF:

METAR-TAF

Vliegvelden :

Luchthaven Tunis-Carthage

Tunis, Tunesië

breedte: 36-50N, lengte: 010-14E, hoogte: 3 m

Actueel weer

Dit bericht is 26 minuten geleden gemaakt, om 01:00 UTC
Wind 4 kt uit het zuiden
Temperatuur 12°C
Vochtigheid 62%
Druk 1022 hPa
Zicht 10 km of meer
Weinig wolken op 2600 ft

METAR: DTTA 290100Z 18004KT 9999 FEW026 12/05 Q1022

Tijdstip: 02:26 (01:26 UTC)

Verwachting

Dit bericht is 2 uur en het 26 minuten geleden gemaakt, om 23:00 UTC
Verwachting geldig van 29 om 00 UTC tot 29 om 24 UTC
Wind 6 kt uit het zuidwesten
Zicht 10 km of meer
Weinig wolken op 2600 ft
Wijzigt naar
van 29 om 12 UTC tot 29 om 14 UTC
Wind 6 kt uit het zuidwesten

TAF: DTTA 282300Z 2900/2924 23006KT 9999 FEW026 BECMG 2912/2914 29015KT PBECMG 2919/2921 23006KT

Waarnemingen en weersverwachtingen van meer dan 4000 vliegvelden (METAR en TAF).

De beschikbare stations zijn de gele en rode punten op de kaart.

Ga met uw muis naar het station om de naam te zien.

Klik dan om waarnemingen en weersverwachtingen te zien.

kaart wijzigen: klik op de groene knoppen met een zwart kruis om in te zoomen, op de groene knop met een streepje om uit te zoomen of op de groene pijlen voor aangrenzende kaarten.


METAR-TAF: